sensor_id;sensor_type;location;lat;lon;timestamp;P1;durP1;ratioP1;P2;durP2;ratioP2
23288;SDS011;11813;50.834;4.280;2022-12-24T00:02:18;34.27;;;5.93;;
23288;SDS011;11813;50.834;4.280;2022-12-24T00:04:43;28.83;;;5.00;;
23288;SDS011;11813;50.834;4.280;2022-12-24T00:07:09;32.10;;;4.73;;
23288;SDS011;11813;50.834;4.280;2022-12-24T00:09:35;28.83;;;5.93;;
23288;SDS011;11813;50.834;4.280;2022-12-24T00:12:00;32.90;;;5.87;;
23288;SDS011;11813;50.834;4.280;2022-12-24T00:14:26;29.73;;;5.27;;
23288;SDS011;11813;50.834;4.280;2022-12-24T00:16:51;33.60;;;5.47;;
23288;SDS011;11813;50.834;4.280;2022-12-24T00:19:17;31.53;;;5.77;;
23288;SDS011;11813;50.834;4.280;2022-12-24T00:21:43;28.77;;;5.83;;
23288;SDS011;11813;50.834;4.280;2022-12-24T00:24:08;27.33;;;4.73;;
23288;SDS011;11813;50.834;4.280;2022-12-24T00:26:34;31.97;;;6.30;;
23288;SDS011;11813;50.834;4.280;2022-12-24T00:29:00;30.70;;;5.23;;
23288;SDS011;11813;50.834;4.280;2022-12-24T00:31:25;40.07;;;5.90;;
23288;SDS011;11813;50.834;4.280;2022-12-24T00:33:51;30.53;;;6.43;;
23288;SDS011;11813;50.834;4.280;2022-12-24T00:36:17;29.07;;;6.13;;
23288;SDS011;11813;50.834;4.280;2022-12-24T00:38:44;32.43;;;4.80;;
23288;SDS011;11813;50.834;4.280;2022-12-24T00:41:10;29.97;;;5.10;;
23288;SDS011;11813;50.834;4.280;2022-12-24T00:43:59;43.07;;;5.97;;
23288;SDS011;11813;50.834;4.280;2022-12-24T00:46:28;27.87;;;5.53;;
23288;SDS011;11813;50.834;4.280;2022-12-24T00:48:55;32.83;;;5.67;;
23288;SDS011;11813;50.834;4.280;2022-12-24T00:51:21;30.27;;;5.27;;
23288;SDS011;11813;50.834;4.280;2022-12-24T00:53:47;24.93;;;5.00;;
23288;SDS011;11813;50.834;4.280;2022-12-24T00:56:12;29.27;;;5.40;;
23288;SDS011;11813;50.834;4.280;2022-12-24T00:58:38;26.23;;;4.70;;
23288;SDS011;11813;50.834;4.280;2022-12-24T01:01:04;30.87;;;5.57;;
23288;SDS011;11813;50.834;4.280;2022-12-24T01:03:30;38.63;;;6.00;;
23288;SDS011;11813;50.834;4.280;2022-12-24T01:06:02;32.17;;;5.30;;
23288;SDS011;11813;50.834;4.280;2022-12-24T01:08:32;32.47;;;5.47;;
23288;SDS011;11813;50.834;4.280;2022-12-24T01:11:00;33.43;;;5.70;;
23288;SDS011;11813;50.834;4.280;2022-12-24T01:13:26;28.80;;;5.17;;
23288;SDS011;11813;50.834;4.280;2022-12-24T01:15:52;25.27;;;4.70;;
23288;SDS011;11813;50.834;4.280;2022-12-24T01:18:17;26.07;;;4.53;;
23288;SDS011;11813;50.834;4.280;2022-12-24T01:20:43;19.03;;;3.17;;
23288;SDS011;11813;50.834;4.280;2022-12-24T01:23:09;10.43;;;2.60;;
23288;SDS011;11813;50.834;4.280;2022-12-24T01:25:36;16.00;;;3.40;;
23288;SDS011;11813;50.834;4.280;2022-12-24T01:28:05;14.67;;;3.43;;
23288;SDS011;11813;50.834;4.280;2022-12-24T01:30:30;16.63;;;3.97;;
23288;SDS011;11813;50.834;4.280;2022-12-24T01:32:56;18.80;;;3.97;;
23288;SDS011;11813;50.834;4.280;2022-12-24T01:35:22;30.57;;;5.00;;
23288;SDS011;11813;50.834;4.280;2022-12-24T01:37:48;32.43;;;5.23;;
23288;SDS011;11813;50.834;4.280;2022-12-24T01:40:14;33.50;;;6.30;;
23288;SDS011;11813;50.834;4.280;2022-12-24T01:42:59;29.10;;;5.30;;
23288;SDS011;11813;50.834;4.280;2022-12-24T01:48:57;33.77;;;6.00;;
23288;SDS011;11813;50.834;4.280;2022-12-24T01:51:04;36.93;;;6.20;;
23288;SDS011;11813;50.834;4.280;2022-12-24T01:53:37;32.43;;;6.50;;
23288;SDS011;11813;50.834;4.280;2022-12-24T01:56:04;33.13;;;6.13;;
23288;SDS011;11813;50.834;4.280;2022-12-24T01:58:31;33.67;;;5.77;;
23288;SDS011;11813;50.834;4.280;2022-12-24T02:00:59;36.00;;;6.97;;
23288;SDS011;11813;50.834;4.280;2022-12-24T02:03:25;34.80;;;7.10;;
23288;SDS011;11813;50.834;4.280;2022-12-24T02:05:54;29.93;;;5.27;;
23288;SDS011;11813;50.834;4.280;2022-12-24T02:08:22;32.30;;;6.07;;
23288;SDS011;11813;50.834;4.280;2022-12-24T02:10:47;32.47;;;5.97;;
23288;SDS011;11813;50.834;4.280;2022-12-24T02:13:14;35.00;;;6.30;;
23288;SDS011;11813;50.834;4.280;2022-12-24T02:18:37;27.17;;;5.87;;
23288;SDS011;11813;50.834;4.280;2022-12-24T02:26:50;26.13;;;5.67;;
23288;SDS011;11813;50.834;4.280;2022-12-24T02:32:12;19.87;;;5.10;;
23288;SDS011;11813;50.834;4.280;2022-12-24T02:34:46;22.23;;;5.10;;
23288;SDS011;11813;50.834;4.280;2022-12-24T02:37:21;30.20;;;4.90;;
23288;SDS011;11813;50.834;4.280;2022-12-24T02:39:56;25.67;;;5.47;;
23288;SDS011;11813;50.834;4.280;2022-12-24T02:42:28;27.10;;;6.23;;
23288;SDS011;11813;50.834;4.280;2022-12-24T02:45:02;23.63;;;5.13;;
23288;SDS011;11813;50.834;4.280;2022-12-24T02:47:34;37.03;;;6.87;;
23288;SDS011;11813;50.834;4.280;2022-12-24T02:50:02;32.30;;;5.80;;
23288;SDS011;11813;50.834;4.280;2022-12-24T02:55:02;24.30;;;4.73;;
23288;SDS011;11813;50.834;4.280;2022-12-24T03:00:40;26.10;;;5.67;;
23288;SDS011;11813;50.834;4.280;2022-12-24T03:06:20;25.07;;;5.33;;
23288;SDS011;11813;50.834;4.280;2022-12-24T03:09:00;24.50;;;5.80;;
23288;SDS011;11813;50.834;4.280;2022-12-24T03:11:43;23.93;;;5.23;;
23288;SDS011;11813;50.834;4.280;2022-12-24T03:14:14;28.93;;;5.73;;
23288;SDS011;11813;50.834;4.280;2022-12-24T03:16:41;35.33;;;6.60;;
23288;SDS011;11813;50.834;4.280;2022-12-24T03:19:07;33.60;;;5.67;;
23288;SDS011;11813;50.834;4.280;2022-12-24T03:21:34;24.93;;;5.87;;
23288;SDS011;11813;50.834;4.280;2022-12-24T03:24:04;29.80;;;5.13;;
23288;SDS011;11813;50.834;4.280;2022-12-24T03:26:30;24.57;;;5.60;;
23288;SDS011;11813;50.834;4.280;2022-12-24T03:28:57;37.20;;;7.57;;
23288;SDS011;11813;50.834;4.280;2022-12-24T03:31:23;28.93;;;5.87;;
23288;SDS011;11813;50.834;4.280;2022-12-24T03:33:49;30.40;;;6.20;;
23288;SDS011;11813;50.834;4.280;2022-12-24T03:36:15;37.23;;;6.83;;
23288;SDS011;11813;50.834;4.280;2022-12-24T03:38:40;30.40;;;6.40;;
23288;SDS011;11813;50.834;4.280;2022-12-24T03:41:06;31.33;;;5.47;;
23288;SDS011;11813;50.834;4.280;2022-12-24T03:43:32;41.70;;;7.20;;
23288;SDS011;11813;50.834;4.280;2022-12-24T03:46:02;25.63;;;5.67;;
23288;SDS011;11813;50.834;4.280;2022-12-24T03:48:29;27.93;;;5.53;;
23288;SDS011;11813;50.834;4.280;2022-12-24T03:50:54;34.10;;;5.33;;
23288;SDS011;11813;50.834;4.280;2022-12-24T03:53:20;34.67;;;6.20;;
23288;SDS011;11813;50.834;4.280;2022-12-24T03:55:45;27.87;;;6.27;;
23288;SDS011;11813;50.834;4.280;2022-12-24T03:58:11;35.67;;;6.50;;
23288;SDS011;11813;50.834;4.280;2022-12-24T04:00:37;37.57;;;6.43;;
23288;SDS011;11813;50.834;4.280;2022-12-24T04:03:03;36.50;;;6.70;;
23288;SDS011;11813;50.834;4.280;2022-12-24T04:05:28;32.20;;;6.27;;
23288;SDS011;11813;50.834;4.280;2022-12-24T04:07:54;36.87;;;6.03;;
23288;SDS011;11813;50.834;4.280;2022-12-24T04:10:20;35.77;;;5.57;;
23288;SDS011;11813;50.834;4.280;2022-12-24T04:12:45;37.53;;;5.60;;
23288;SDS011;11813;50.834;4.280;2022-12-24T04:15:11;27.70;;;5.30;;
23288;SDS011;11813;50.834;4.280;2022-12-24T04:17:37;29.57;;;6.67;;
23288;SDS011;11813;50.834;4.280;2022-12-24T04:20:03;27.57;;;5.23;;
23288;SDS011;11813;50.834;4.280;2022-12-24T04:22:29;29.17;;;5.87;;
23288;SDS011;11813;50.834;4.280;2022-12-24T04:24:54;40.00;;;5.90;;
23288;SDS011;11813;50.834;4.280;2022-12-24T04:27:20;35.07;;;5.93;;
23288;SDS011;11813;50.834;4.280;2022-12-24T04:29:46;34.63;;;6.37;;
23288;SDS011;11813;50.834;4.280;2022-12-24T04:32:12;28.33;;;5.17;;
23288;SDS011;11813;50.834;4.280;2022-12-24T04:34:37;41.27;;;7.10;;
23288;SDS011;11813;50.834;4.280;2022-12-24T04:37:03;37.27;;;6.30;;
23288;SDS011;11813;50.834;4.280;2022-12-24T04:39:28;42.13;;;6.63;;
23288;SDS011;11813;50.834;4.280;2022-12-24T04:41:54;32.60;;;6.30;;
23288;SDS011;11813;50.834;4.280;2022-12-24T04:44:20;32.60;;;5.00;;
23288;SDS011;11813;50.834;4.280;2022-12-24T04:46:45;29.60;;;6.40;;
23288;SDS011;11813;50.834;4.280;2022-12-24T04:49:11;37.07;;;7.63;;
23288;SDS011;11813;50.834;4.280;2022-12-24T04:51:36;37.30;;;5.60;;
23288;SDS011;11813;50.834;4.280;2022-12-24T04:54:02;30.37;;;6.33;;
23288;SDS011;11813;50.834;4.280;2022-12-24T04:56:29;23.63;;;4.83;;
23288;SDS011;11813;50.834;4.280;2022-12-24T04:58:56;39.07;;;8.00;;
23288;SDS011;11813;50.834;4.280;2022-12-24T05:01:24;27.90;;;5.60;;
23288;SDS011;11813;50.834;4.280;2022-12-24T05:03:52;32.10;;;6.43;;
23288;SDS011;11813;50.834;4.280;2022-12-24T05:06:20;38.70;;;5.97;;
23288;SDS011;11813;50.834;4.280;2022-12-24T05:08:48;31.23;;;5.63;;
23288;SDS011;11813;50.834;4.280;2022-12-24T05:11:14;36.80;;;5.77;;
23288;SDS011;11813;50.834;4.280;2022-12-24T05:13:40;33.87;;;5.90;;
23288;SDS011;11813;50.834;4.280;2022-12-24T05:16:08;43.37;;;6.57;;
23288;SDS011;11813;50.834;4.280;2022-12-24T05:18:34;30.40;;;5.13;;
23288;SDS011;11813;50.834;4.280;2022-12-24T05:21:00;31.70;;;6.20;;
23288;SDS011;11813;50.834;4.280;2022-12-24T05:23:25;38.43;;;6.83;;
23288;SDS011;11813;50.834;4.280;2022-12-24T05:26:17;31.63;;;5.27;;
23288;SDS011;11813;50.834;4.280;2022-12-24T05:28:51;31.00;;;6.40;;
23288;SDS011;11813;50.834;4.280;2022-12-24T05:31:18;33.63;;;6.17;;
23288;SDS011;11813;50.834;4.280;2022-12-24T05:33:45;37.40;;;6.63;;
23288;SDS011;11813;50.834;4.280;2022-12-24T05:36:10;39.10;;;6.20;;
23288;SDS011;11813;50.834;4.280;2022-12-24T05:38:36;33.63;;;6.27;;
23288;SDS011;11813;50.834;4.280;2022-12-24T05:41:02;36.83;;;7.40;;
23288;SDS011;11813;50.834;4.280;2022-12-24T05:43:28;32.07;;;6.03;;
23288;SDS011;11813;50.834;4.280;2022-12-24T05:45:58;31.37;;;5.30;;
23288;SDS011;11813;50.834;4.280;2022-12-24T05:48:27;51.53;;;6.77;;
23288;SDS011;11813;50.834;4.280;2022-12-24T05:50:53;39.13;;;6.10;;
23288;SDS011;11813;50.834;4.280;2022-12-24T05:53:20;30.40;;;6.37;;
23288;SDS011;11813;50.834;4.280;2022-12-24T05:55:46;18.73;;;4.07;;
23288;SDS011;11813;50.834;4.280;2022-12-24T05:58:12;29.90;;;6.20;;
23288;SDS011;11813;50.834;4.280;2022-12-24T06:00:38;46.23;;;6.00;;
23288;SDS011;11813;50.834;4.280;2022-12-24T06:03:03;24.70;;;5.53;;
23288;SDS011;11813;50.834;4.280;2022-12-24T06:05:29;36.13;;;7.67;;
23288;SDS011;11813;50.834;4.280;2022-12-24T06:07:55;38.80;;;5.93;;
23288;SDS011;11813;50.834;4.280;2022-12-24T06:10:21;34.37;;;5.87;;
23288;SDS011;11813;50.834;4.280;2022-12-24T06:12:46;36.10;;;6.10;;
23288;SDS011;11813;50.834;4.280;2022-12-24T06:15:12;43.90;;;6.37;;
23288;SDS011;11813;50.834;4.280;2022-12-24T06:17:38;36.10;;;6.47;;
23288;SDS011;11813;50.834;4.280;2022-12-24T06:20:04;27.40;;;5.83;;
23288;SDS011;11813;50.834;4.280;2022-12-24T06:22:30;44.83;;;6.30;;
23288;SDS011;11813;50.834;4.280;2022-12-24T06:24:55;30.43;;;5.73;;
23288;SDS011;11813;50.834;4.280;2022-12-24T06:27:21;30.70;;;6.33;;
23288;SDS011;11813;50.834;4.280;2022-12-24T06:29:47;33.67;;;6.23;;
23288;SDS011;11813;50.834;4.280;2022-12-24T06:32:12;36.23;;;5.80;;
23288;SDS011;11813;50.834;4.280;2022-12-24T06:34:38;36.27;;;6.13;;
23288;SDS011;11813;50.834;4.280;2022-12-24T06:37:03;32.93;;;5.83;;
23288;SDS011;11813;50.834;4.280;2022-12-24T06:39:29;37.80;;;6.87;;
23288;SDS011;11813;50.834;4.280;2022-12-24T06:41:54;40.87;;;7.00;;
23288;SDS011;11813;50.834;4.280;2022-12-24T06:44:20;36.17;;;6.77;;
23288;SDS011;11813;50.834;4.280;2022-12-24T06:46:46;35.37;;;5.30;;
23288;SDS011;11813;50.834;4.280;2022-12-24T06:49:11;44.97;;;6.43;;
23288;SDS011;11813;50.834;4.280;2022-12-24T06:51:37;44.27;;;6.57;;
23288;SDS011;11813;50.834;4.280;2022-12-24T06:54:02;30.57;;;5.80;;
23288;SDS011;11813;50.834;4.280;2022-12-24T06:56:28;35.40;;;6.47;;
23288;SDS011;11813;50.834;4.280;2022-12-24T06:58:54;32.00;;;6.57;;
23288;SDS011;11813;50.834;4.280;2022-12-24T07:01:19;37.37;;;6.37;;
23288;SDS011;11813;50.834;4.280;2022-12-24T07:03:45;36.43;;;6.90;;
23288;SDS011;11813;50.834;4.280;2022-12-24T07:06:15;32.53;;;5.63;;
23288;SDS011;11813;50.834;4.280;2022-12-24T07:08:49;43.50;;;7.13;;
23288;SDS011;11813;50.834;4.280;2022-12-24T07:11:15;37.90;;;7.77;;
23288;SDS011;11813;50.834;4.280;2022-12-24T07:13:41;31.53;;;5.90;;
23288;SDS011;11813;50.834;4.280;2022-12-24T07:16:06;34.93;;;5.97;;
23288;SDS011;11813;50.834;4.280;2022-12-24T07:18:32;41.03;;;6.17;;
23288;SDS011;11813;50.834;4.280;2022-12-24T07:20:58;35.63;;;5.97;;
23288;SDS011;11813;50.834;4.280;2022-12-24T07:23:24;29.07;;;6.07;;
23288;SDS011;11813;50.834;4.280;2022-12-24T07:25:50;30.67;;;6.47;;
23288;SDS011;11813;50.834;4.280;2022-12-24T07:28:15;40.57;;;6.63;;
23288;SDS011;11813;50.834;4.280;2022-12-24T07:30:41;31.53;;;6.07;;
23288;SDS011;11813;50.834;4.280;2022-12-24T07:33:07;35.77;;;6.27;;
23288;SDS011;11813;50.834;4.280;2022-12-24T07:35:32;32.23;;;6.83;;
23288;SDS011;11813;50.834;4.280;2022-12-24T07:37:58;38.57;;;7.50;;
23288;SDS011;11813;50.834;4.280;2022-12-24T07:40:24;38.07;;;6.97;;
23288;SDS011;11813;50.834;4.280;2022-12-24T07:42:49;34.90;;;7.13;;
23288;SDS011;11813;50.834;4.280;2022-12-24T07:45:15;33.17;;;6.07;;
23288;SDS011;11813;50.834;4.280;2022-12-24T07:47:40;43.07;;;7.63;;
23288;SDS011;11813;50.834;4.280;2022-12-24T07:50:06;33.00;;;6.80;;
23288;SDS011;11813;50.834;4.280;2022-12-24T07:52:32;31.57;;;5.63;;
23288;SDS011;11813;50.834;4.280;2022-12-24T07:54:58;38.20;;;7.43;;
23288;SDS011;11813;50.834;4.280;2022-12-24T07:57:23;30.13;;;5.63;;
23288;SDS011;11813;50.834;4.280;2022-12-24T07:59:49;48.07;;;7.33;;
23288;SDS011;11813;50.834;4.280;2022-12-24T08:02:14;37.27;;;6.50;;
23288;SDS011;11813;50.834;4.280;2022-12-24T08:04:40;40.63;;;6.30;;
23288;SDS011;11813;50.834;4.280;2022-12-24T08:07:06;33.60;;;5.60;;
23288;SDS011;11813;50.834;4.280;2022-12-24T08:09:35;32.03;;;5.93;;
23288;SDS011;11813;50.834;4.280;2022-12-24T08:12:01;41.13;;;6.60;;
23288;SDS011;11813;50.834;4.280;2022-12-24T08:14:28;27.57;;;6.63;;
23288;SDS011;11813;50.834;4.280;2022-12-24T08:16:53;40.63;;;6.50;;
23288;SDS011;11813;50.834;4.280;2022-12-24T08:19:19;35.47;;;5.67;;
23288;SDS011;11813;50.834;4.280;2022-12-24T08:21:45;31.63;;;7.00;;
23288;SDS011;11813;50.834;4.280;2022-12-24T08:24:10;43.37;;;6.77;;
23288;SDS011;11813;50.834;4.280;2022-12-24T08:26:36;36.63;;;6.43;;
23288;SDS011;11813;50.834;4.280;2022-12-24T08:29:02;35.63;;;6.67;;
23288;SDS011;11813;50.834;4.280;2022-12-24T08:31:28;39.90;;;6.10;;
23288;SDS011;11813;50.834;4.280;2022-12-24T08:33:54;27.80;;;5.70;;
23288;SDS011;11813;50.834;4.280;2022-12-24T08:36:20;39.97;;;6.03;;
23288;SDS011;11813;50.834;4.280;2022-12-24T08:38:46;41.87;;;7.27;;
23288;SDS011;11813;50.834;4.280;2022-12-24T08:41:11;39.73;;;6.33;;
23288;SDS011;11813;50.834;4.280;2022-12-24T08:43:37;38.50;;;6.07;;
23288;SDS011;11813;50.834;4.280;2022-12-24T08:46:03;36.10;;;6.33;;
23288;SDS011;11813;50.834;4.280;2022-12-24T08:48:30;49.50;;;6.90;;
23288;SDS011;11813;50.834;4.280;2022-12-24T08:50:56;42.27;;;7.37;;
23288;SDS011;11813;50.834;4.280;2022-12-24T08:53:22;33.27;;;6.30;;
23288;SDS011;11813;50.834;4.280;2022-12-24T08:55:48;26.20;;;5.73;;
23288;SDS011;11813;50.834;4.280;2022-12-24T08:58:13;35.87;;;6.43;;
23288;SDS011;11813;50.834;4.280;2022-12-24T09:00:39;36.37;;;6.20;;
23288;SDS011;11813;50.834;4.280;2022-12-24T09:03:05;32.63;;;6.70;;
23288;SDS011;11813;50.834;4.280;2022-12-24T09:05:30;31.57;;;6.57;;
23288;SDS011;11813;50.834;4.280;2022-12-24T09:07:56;34.27;;;6.70;;
23288;SDS011;11813;50.834;4.280;2022-12-24T09:10:22;41.83;;;6.07;;
23288;SDS011;11813;50.834;4.280;2022-12-24T09:12:48;38.17;;;7.03;;
23288;SDS011;11813;50.834;4.280;2022-12-24T09:15:15;40.17;;;5.57;;
23288;SDS011;11813;50.834;4.280;2022-12-24T09:17:40;35.23;;;5.67;;
23288;SDS011;11813;50.834;4.280;2022-12-24T09:20:07;27.43;;;6.27;;
23288;SDS011;11813;50.834;4.280;2022-12-24T09:22:34;37.17;;;7.97;;
23288;SDS011;11813;50.834;4.280;2022-12-24T09:25:02;40.20;;;7.57;;
23288;SDS011;11813;50.834;4.280;2022-12-24T09:27:34;29.40;;;6.07;;
23288;SDS011;11813;50.834;4.280;2022-12-24T09:30:00;27.27;;;6.30;;
23288;SDS011;11813;50.834;4.280;2022-12-24T09:32:26;35.03;;;6.07;;
23288;SDS011;11813;50.834;4.280;2022-12-24T09:34:51;34.27;;;7.73;;
23288;SDS011;11813;50.834;4.280;2022-12-24T09:37:17;42.47;;;8.30;;
23288;SDS011;11813;50.834;4.280;2022-12-24T09:39:43;33.20;;;6.90;;
23288;SDS011;11813;50.834;4.280;2022-12-24T09:48:23;38.27;;;7.17;;
23288;SDS011;11813;50.834;4.280;2022-12-24T09:50:53;35.00;;;7.07;;
23288;SDS011;11813;50.834;4.280;2022-12-24T09:56:18;36.50;;;6.87;;
23288;SDS011;11813;50.834;4.280;2022-12-24T09:58:57;32.47;;;7.20;;
23288;SDS011;11813;50.834;4.280;2022-12-24T10:01:25;40.83;;;6.57;;
23288;SDS011;11813;50.834;4.280;2022-12-24T10:03:54;41.50;;;7.83;;
23288;SDS011;11813;50.834;4.280;2022-12-24T10:06:31;30.10;;;6.80;;
23288;SDS011;11813;50.834;4.280;2022-12-24T10:09:34;33.27;;;6.83;;
23288;SDS011;11813;50.834;4.280;2022-12-24T10:12:21;35.30;;;7.13;;
23288;SDS011;11813;50.834;4.280;2022-12-24T10:20:21;33.57;;;6.90;;
23288;SDS011;11813;50.834;4.280;2022-12-24T10:23:14;29.10;;;5.87;;
23288;SDS011;11813;50.834;4.280;2022-12-24T10:25:57;28.33;;;6.37;;
23288;SDS011;11813;50.834;4.280;2022-12-24T10:28:42;32.93;;;6.27;;
23288;SDS011;11813;50.834;4.280;2022-12-24T10:31:10;40.37;;;6.67;;
23288;SDS011;11813;50.834;4.280;2022-12-24T10:33:41;24.33;;;5.97;;
23288;SDS011;11813;50.834;4.280;2022-12-24T10:36:14;35.60;;;6.80;;
23288;SDS011;11813;50.834;4.280;2022-12-24T10:38:43;35.70;;;7.17;;
23288;SDS011;11813;50.834;4.280;2022-12-24T10:41:09;36.20;;;6.20;;
23288;SDS011;11813;50.834;4.280;2022-12-24T10:43:37;42.77;;;7.30;;
23288;SDS011;11813;50.834;4.280;2022-12-24T10:48:50;28.83;;;5.37;;
23288;SDS011;11813;50.834;4.280;2022-12-24T10:51:34;33.17;;;6.87;;
23288;SDS011;11813;50.834;4.280;2022-12-24T10:54:23;30.10;;;6.00;;
23288;SDS011;11813;50.834;4.280;2022-12-24T10:56:55;30.07;;;5.77;;
23288;SDS011;11813;50.834;4.280;2022-12-24T11:01:56;40.80;;;6.33;;
23288;SDS011;11813;50.834;4.280;2022-12-24T11:04:24;32.77;;;6.23;;
23288;SDS011;11813;50.834;4.280;2022-12-24T11:09:28;35.33;;;6.70;;
23288;SDS011;11813;50.834;4.280;2022-12-24T11:12:03;34.17;;;6.23;;
23288;SDS011;11813;50.834;4.280;2022-12-24T11:14:39;31.03;;;6.80;;
23288;SDS011;11813;50.834;4.280;2022-12-24T11:17:05;33.23;;;5.60;;
23288;SDS011;11813;50.834;4.280;2022-12-24T11:19:34;30.57;;;7.20;;
23288;SDS011;11813;50.834;4.280;2022-12-24T11:22:06;31.83;;;6.73;;
23288;SDS011;11813;50.834;4.280;2022-12-24T11:24:42;49.23;;;7.00;;
23288;SDS011;11813;50.834;4.280;2022-12-24T11:27:42;39.63;;;7.40;;
23288;SDS011;11813;50.834;4.280;2022-12-24T11:32:44;25.40;;;7.00;;
23288;SDS011;11813;50.834;4.280;2022-12-24T11:35:17;35.53;;;7.07;;
23288;SDS011;11813;50.834;4.280;2022-12-24T11:38:09;31.53;;;7.23;;
23288;SDS011;11813;50.834;4.280;2022-12-24T11:43:03;39.23;;;6.73;;
23288;SDS011;11813;50.834;4.280;2022-12-24T11:45:29;30.23;;;5.60;;
23288;SDS011;11813;50.834;4.280;2022-12-24T11:47:57;31.33;;;6.30;;
23288;SDS011;11813;50.834;4.280;2022-12-24T11:50:30;31.03;;;6.47;;
23288;SDS011;11813;50.834;4.280;2022-12-24T12:00:50;25.30;;;5.43;;
23288;SDS011;11813;50.834;4.280;2022-12-24T12:03:29;27.87;;;6.33;;
23288;SDS011;11813;50.834;4.280;2022-12-24T12:05:59;34.60;;;7.27;;
23288;SDS011;11813;50.834;4.280;2022-12-24T12:08:27;33.53;;;7.23;;
23288;SDS011;11813;50.834;4.280;2022-12-24T12:10:55;28.43;;;6.00;;
23288;SDS011;11813;50.834;4.280;2022-12-24T12:13:27;33.87;;;6.70;;
23288;SDS011;11813;50.834;4.280;2022-12-24T12:18:50;28.17;;;6.70;;
23288;SDS011;11813;50.834;4.280;2022-12-24T12:21:20;22.13;;;5.87;;
23288;SDS011;11813;50.834;4.280;2022-12-24T12:23:54;32.80;;;6.10;;
23288;SDS011;11813;50.834;4.280;2022-12-24T12:26:25;28.50;;;6.03;;
23288;SDS011;11813;50.834;4.280;2022-12-24T12:31:53;29.40;;;5.93;;
23288;SDS011;11813;50.834;4.280;2022-12-24T12:36:53;31.67;;;6.30;;
23288;SDS011;11813;50.834;4.280;2022-12-24T12:39:26;32.00;;;6.40;;
23288;SDS011;11813;50.834;4.280;2022-12-24T12:44:54;27.97;;;6.17;;
23288;SDS011;11813;50.834;4.280;2022-12-24T12:47:39;27.77;;;6.37;;
23288;SDS011;11813;50.834;4.280;2022-12-24T12:56:00;32.60;;;6.00;;
23288;SDS011;11813;50.834;4.280;2022-12-24T13:14:57;38.17;;;6.97;;
23288;SDS011;11813;50.834;4.280;2022-12-24T13:20:20;32.43;;;7.10;;
23288;SDS011;11813;50.834;4.280;2022-12-24T13:25:36;27.03;;;7.33;;
23288;SDS011;11813;50.834;4.280;2022-12-24T13:30:46;26.23;;;5.90;;
23288;SDS011;11813;50.834;4.280;2022-12-24T13:36:18;26.93;;;6.67;;
23288;SDS011;11813;50.834;4.280;2022-12-24T13:49:14;28.13;;;5.87;;
23288;SDS011;11813;50.834;4.280;2022-12-24T13:51:49;28.30;;;6.37;;
23288;SDS011;11813;50.834;4.280;2022-12-24T13:54:16;31.37;;;6.87;;
23288;SDS011;11813;50.834;4.280;2022-12-24T13:56:47;28.70;;;6.60;;
23288;SDS011;11813;50.834;4.280;2022-12-24T13:59:21;31.73;;;6.13;;
23288;SDS011;11813;50.834;4.280;2022-12-24T14:02:02;26.60;;;6.13;;
23288;SDS011;11813;50.834;4.280;2022-12-24T14:04:32;32.53;;;6.17;;
23288;SDS011;11813;50.834;4.280;2022-12-24T14:07:01;26.63;;;6.20;;
23288;SDS011;11813;50.834;4.280;2022-12-24T14:09:28;22.43;;;4.83;;
23288;SDS011;11813;50.834;4.280;2022-12-24T14:14:28;26.30;;;7.23;;
23288;SDS011;11813;50.834;4.280;2022-12-24T14:17:02;21.23;;;5.60;;
23288;SDS011;11813;50.834;4.280;2022-12-24T14:19:43;28.97;;;6.60;;
23288;SDS011;11813;50.834;4.280;2022-12-24T14:25:20;28.73;;;6.17;;
23288;SDS011;11813;50.834;4.280;2022-12-24T14:27:43;39.97;;;6.67;;
23288;SDS011;11813;50.834;4.280;2022-12-24T14:30:21;32.47;;;6.10;;
23288;SDS011;11813;50.834;4.280;2022-12-24T14:32:54;25.47;;;5.87;;
23288;SDS011;11813;50.834;4.280;2022-12-24T14:35:27;33.73;;;6.87;;
23288;SDS011;11813;50.834;4.280;2022-12-24T14:38:02;28.70;;;6.93;;
23288;SDS011;11813;50.834;4.280;2022-12-24T14:40:33;24.93;;;6.17;;
23288;SDS011;11813;50.834;4.280;2022-12-24T14:43:14;32.17;;;6.57;;
23288;SDS011;11813;50.834;4.280;2022-12-24T14:48:35;32.67;;;6.40;;
23288;SDS011;11813;50.834;4.280;2022-12-24T14:51:14;34.97;;;7.13;;
23288;SDS011;11813;50.834;4.280;2022-12-24T14:54:12;36.97;;;6.70;;
23288;SDS011;11813;50.834;4.280;2022-12-24T14:57:05;29.10;;;6.40;;
23288;SDS011;11813;50.834;4.280;2022-12-24T15:07:56;28.57;;;6.27;;
23288;SDS011;11813;50.834;4.280;2022-12-24T15:10:25;23.47;;;5.47;;
23288;SDS011;11813;50.834;4.280;2022-12-24T15:12:55;30.20;;;6.83;;
23288;SDS011;11813;50.834;4.280;2022-12-24T15:15:25;32.17;;;6.90;;
23288;SDS011;11813;50.834;4.280;2022-12-24T15:17:51;34.83;;;8.13;;
23288;SDS011;11813;50.834;4.280;2022-12-24T15:20:19;33.50;;;7.70;;
23288;SDS011;11813;50.834;4.280;2022-12-24T15:22:49;37.47;;;6.90;;
23288;SDS011;11813;50.834;4.280;2022-12-24T15:25:24;28.30;;;6.23;;
23288;SDS011;11813;50.834;4.280;2022-12-24T15:27:53;31.27;;;6.73;;
23288;SDS011;11813;50.834;4.280;2022-12-24T15:30:20;31.67;;;8.50;;
23288;SDS011;11813;50.834;4.280;2022-12-24T15:32:55;30.80;;;6.93;;
23288;SDS011;11813;50.834;4.280;2022-12-24T15:38:30;34.20;;;6.80;;
23288;SDS011;11813;50.834;4.280;2022-12-24T15:41:03;24.60;;;7.97;;
23288;SDS011;11813;50.834;4.280;2022-12-24T15:43:32;35.73;;;6.53;;
23288;SDS011;11813;50.834;4.280;2022-12-24T15:46:02;24.23;;;6.53;;
23288;SDS011;11813;50.834;4.280;2022-12-24T15:48:28;34.97;;;8.53;;
23288;SDS011;11813;50.834;4.280;2022-12-24T15:50:57;34.10;;;7.97;;
23288;SDS011;11813;50.834;4.280;2022-12-24T16:03:37;40.27;;;8.20;;
23288;SDS011;11813;50.834;4.280;2022-12-24T16:06:18;38.67;;;7.67;;
23288;SDS011;11813;50.834;4.280;2022-12-24T16:08:45;31.93;;;7.00;;
23288;SDS011;11813;50.834;4.280;2022-12-24T16:14:11;37.13;;;8.97;;
23288;SDS011;11813;50.834;4.280;2022-12-24T16:16:40;34.90;;;8.10;;
23288;SDS011;11813;50.834;4.280;2022-12-24T16:19:23;36.40;;;9.13;;
23288;SDS011;11813;50.834;4.280;2022-12-24T16:21:56;25.07;;;6.10;;
23288;SDS011;11813;50.834;4.280;2022-12-24T16:24:25;29.67;;;7.13;;
23288;SDS011;11813;50.834;4.280;2022-12-24T16:26:53;34.73;;;6.83;;
23288;SDS011;11813;50.834;4.280;2022-12-24T16:29:18;30.17;;;7.27;;
23288;SDS011;11813;50.834;4.280;2022-12-24T16:31:46;24.67;;;6.67;;
23288;SDS011;11813;50.834;4.280;2022-12-24T16:34:15;29.20;;;6.80;;
23288;SDS011;11813;50.834;4.280;2022-12-24T16:36:41;25.37;;;7.13;;
23288;SDS011;11813;50.834;4.280;2022-12-24T16:39:13;32.80;;;7.30;;
23288;SDS011;11813;50.834;4.280;2022-12-24T16:41:54;32.80;;;7.70;;
23288;SDS011;11813;50.834;4.280;2022-12-24T16:44:41;32.13;;;7.80;;
23288;SDS011;11813;50.834;4.280;2022-12-24T16:49:38;32.47;;;8.03;;
23288;SDS011;11813;50.834;4.280;2022-12-24T16:52:05;29.77;;;7.20;;
23288;SDS011;11813;50.834;4.280;2022-12-24T16:54:32;29.63;;;8.27;;
23288;SDS011;11813;50.834;4.280;2022-12-24T16:56:57;28.27;;;8.70;;
23288;SDS011;11813;50.834;4.280;2022-12-24T16:59:23;32.83;;;9.07;;
23288;SDS011;11813;50.834;4.280;2022-12-24T17:01:49;27.27;;;8.57;;
23288;SDS011;11813;50.834;4.280;2022-12-24T17:04:16;37.37;;;11.73;;
23288;SDS011;11813;50.834;4.280;2022-12-24T17:06:42;36.50;;;10.30;;
23288;SDS011;11813;50.834;4.280;2022-12-24T17:09:08;27.73;;;9.37;;
23288;SDS011;11813;50.834;4.280;2022-12-24T17:11:35;27.87;;;9.27;;
23288;SDS011;11813;50.834;4.280;2022-12-24T17:14:01;30.30;;;9.13;;